createdAt,value
2019-01-16T00:00:05.556Z,29.4
2019-01-16T00:02:05.798Z,29.3
2019-01-16T00:04:05.556Z,29.2
2019-01-16T00:06:07.732Z,29.2
2019-01-16T00:08:05.425Z,29.2
2019-01-16T00:10:05.169Z,29.4
2019-01-16T00:12:05.841Z,29.4
2019-01-16T00:14:05.563Z,29.4
2019-01-16T00:16:07.749Z,29.2
2019-01-16T00:18:05.702Z,29.2
2019-01-16T00:20:05.408Z,29.3
2019-01-16T00:22:05.154Z,29.3
2019-01-16T00:24:08.358Z,29.5
2019-01-16T00:26:05.090Z,29.3
2019-01-16T00:28:10.904Z,29.2
2019-01-16T00:30:05.612Z,29.2
2019-01-16T00:32:05.303Z,29.2
2019-01-16T00:34:05.511Z,29.3
2019-01-16T00:36:05.789Z,29.3
2019-01-16T00:38:05.433Z,29.3
2019-01-16T00:40:05.174Z,29.4
2019-01-16T00:42:05.917Z,29.2
2019-01-16T00:44:05.146Z,29.4
2019-01-16T00:46:05.815Z,29.3
2019-01-16T00:48:05.467Z,29.3
2019-01-16T00:50:05.186Z,29.1
2019-01-16T00:52:05.909Z,29.3
2019-01-16T00:54:05.083Z,29.2
2019-01-16T00:56:05.755Z,29.3
2019-01-16T00:58:05.506Z,29.2
2019-01-16T01:00:05.177Z,29.2
2019-01-16T01:02:05.826Z,29.2
2019-01-16T01:04:05.507Z,29.2
2019-01-16T01:06:05.238Z,29.2
2019-01-16T01:08:05.889Z,29.2
2019-01-16T01:10:08.129Z,29.2
2019-01-16T01:12:05.836Z,29.2
2019-01-16T01:14:10.125Z,29.2
2019-01-16T01:16:05.852Z,29.2
2019-01-16T01:18:05.706Z,29.3
2019-01-16T01:20:05.387Z,29.2
2019-01-16T01:22:05.207Z,29.4
2019-01-16T01:24:05.978Z,29.3
2019-01-16T01:26:10.756Z,29.2
2019-01-16T01:28:05.516Z,29.2
2019-01-16T01:30:05.418Z,29.2
2019-01-16T01:32:05.141Z,29.2
2019-01-16T01:34:05.889Z,29.2
2019-01-16T01:36:05.516Z,29.2
2019-01-16T01:38:07.718Z,29.2
2019-01-16T01:40:05.433Z,29.2
2019-01-16T01:42:05.318Z,29.1
2019-01-16T01:44:05.518Z,29.2
2019-01-16T01:46:05.193Z,29.3
2019-01-16T01:48:05.886Z,29.3
2019-01-16T01:50:08.057Z,29.2
2019-01-16T01:52:05.787Z,29.2
2019-01-16T01:54:05.446Z,29.3
2019-01-16T01:56:07.625Z,29.2
2019-01-16T01:58:05.323Z,29.2
2019-01-16T02:00:05.017Z,29.2
2019-01-16T02:02:05.737Z,29.2
2019-01-16T02:04:05.456Z,29.3
2019-01-16T02:06:05.123Z,29.3
2019-01-16T02:08:05.780Z,29.2
2019-01-16T02:10:08.010Z,29.1
2019-01-16T02:12:05.666Z,29.2
2019-01-16T02:14:05.391Z,29.1
2019-01-16T02:16:07.651Z,29.2
2019-01-16T02:18:05.612Z,29.2
2019-01-16T02:20:05.356Z,29.3
2019-01-16T02:22:05.071Z,29.2
2019-01-16T02:24:05.826Z,29.1
2019-01-16T02:26:08.483Z,29.2
2019-01-16T02:28:05.192Z,29.2
2019-01-16T02:30:05.894Z,29.2
2019-01-16T02:32:05.871Z,29.1
2019-01-16T02:34:05.802Z,29.3
2019-01-16T02:36:05.579Z,29.1
2019-01-16T02:38:05.277Z,29.3
2019-01-16T02:40:05.951Z,29.1
2019-01-16T02:42:05.619Z,29.1
2019-01-16T02:44:05.887Z,29.1
2019-01-16T02:46:13.296Z,29.1
2019-01-16T02:48:05.979Z,29.1
2019-01-16T02:50:05.753Z,29.1
2019-01-16T02:52:05.413Z,29.2
2019-01-16T02:54:05.702Z,29.1
2019-01-16T02:56:05.354Z,29.1
2019-01-16T02:58:05.290Z,29.1
2019-01-16T03:00:05.409Z,29
2019-01-16T03:02:05.083Z,29.2
2019-01-16T03:04:05.752Z,29
2019-01-16T03:06:07.621Z,29.1
2019-01-16T03:08:13.005Z,29
2019-01-16T03:10:05.720Z,29.1
2019-01-16T03:12:05.934Z,29.2
2019-01-16T03:14:05.177Z,29.1
2019-01-16T03:16:05.371Z,29
2019-01-16T03:18:05.304Z,29
2019-01-16T03:20:05.987Z,29.2
2019-01-16T03:22:08.225Z,29.1
2019-01-16T03:24:06.094Z,29.1
2019-01-16T03:26:05.845Z,29.1
2019-01-16T03:28:05.898Z,29.1
2019-01-16T03:30:05.668Z,29.1
2019-01-16T03:32:05.470Z,29.1
2019-01-16T03:34:05.189Z,29.1
2019-01-16T03:36:05.879Z,29.1
2019-01-16T03:38:05.583Z,29.1
2019-01-16T03:40:05.283Z,29.1
2019-01-16T03:42:06.042Z,29
2019-01-16T03:44:05.727Z,29.2
2019-01-16T03:46:05.458Z,29.1
2019-01-16T03:48:05.284Z,29.1
2019-01-16T03:50:06.000Z,29.1
2019-01-16T03:52:08.208Z,29.1
2019-01-16T03:54:05.391Z,29.1
2019-01-16T03:56:10.671Z,29
2019-01-16T03:58:05.897Z,29.1
2019-01-16T04:00:05.098Z,29
2019-01-16T04:02:13.504Z,29.1
2019-01-16T04:04:05.218Z,29.2
2019-01-16T04:06:05.954Z,29
2019-01-16T04:08:07.713Z,29
2019-01-16T04:10:07.954Z,29
2019-01-16T04:12:13.218Z,28.9
2019-01-16T04:14:05.954Z,28.7
2019-01-16T04:16:08.178Z,28.9
2019-01-16T04:18:05.103Z,28.8
2019-01-16T04:20:05.780Z,28.8
2019-01-16T04:22:05.716Z,28.7
2019-01-16T04:24:05.020Z,28.7
2019-01-16T04:26:05.868Z,28.7
2019-01-16T04:28:08.056Z,28.8
2019-01-16T04:30:05.725Z,28.8
2019-01-16T04:32:05.525Z,28.6
2019-01-16T04:34:05.758Z,28.6
2019-01-16T04:36:05.148Z,28.6
2019-01-16T04:38:05.917Z,28.6
2019-01-16T04:40:05.648Z,28.8
2019-01-16T04:42:05.383Z,29
2019-01-16T04:44:05.098Z,29.2
2019-01-16T04:46:05.840Z,29.2
2019-01-16T04:48:15.725Z,29.2
2019-01-16T04:50:05.919Z,29.2
2019-01-16T04:52:05.093Z,29.3
2019-01-16T04:54:05.300Z,29.8
2019-01-16T04:56:08.517Z,30
2019-01-16T04:58:07.756Z,31.3
2019-01-16T05:00:08.507Z,30.8
2019-01-16T05:02:05.417Z,30.6
2019-01-16T05:04:05.237Z,31.4
2019-01-16T05:06:10.998Z,33
2019-01-16T05:08:05.793Z,32.8
2019-01-16T05:10:05.531Z,33.2
2019-01-16T05:12:05.843Z,38.8
2019-01-16T05:14:05.620Z,37.2
2019-01-16T05:16:05.880Z,35.1
2019-01-16T05:18:08.004Z,34
2019-01-16T05:20:05.783Z,33.8
2019-01-16T05:22:05.528Z,33.4
2019-01-16T05:24:05.253Z,34
2019-01-16T05:26:05.485Z,33.1
2019-01-16T05:28:05.231Z,33.3
2019-01-16T05:30:06.109Z,34.2
2019-01-16T05:32:10.823Z,36
2019-01-16T05:34:05.580Z,35.1
2019-01-16T05:36:08.650Z,33.6
2019-01-16T05:38:14.227Z,34.8
2019-01-16T05:40:05.909Z,36
2019-01-16T05:42:05.704Z,36.2
2019-01-16T05:44:12.118Z,37.7
2019-01-16T05:46:06.063Z,31
2019-01-16T05:48:05.749Z,32.1
2019-01-16T05:50:05.405Z,32.5
2019-01-16T05:52:05.213Z,32.6
2019-01-16T05:54:08.558Z,31.6
2019-01-16T05:56:05.771Z,30.5
2019-01-16T05:58:05.514Z,30
2019-01-16T06:00:05.202Z,30
2019-01-16T06:02:05.889Z,30
2019-01-16T06:04:05.577Z,29.9
2019-01-16T06:06:05.300Z,29.5
2019-01-16T06:08:06.015Z,29.4
2019-01-16T06:10:05.677Z,29.2
2019-01-16T06:12:10.310Z,29.3
2019-01-16T06:14:08.838Z,29.4
2019-01-16T06:16:13.397Z,29.2
2019-01-16T06:18:05.268Z,29.3
2019-01-16T06:24:41.668Z,29.2
2019-01-16T06:25:55.010Z,29.3
2019-01-16T06:26:08.340Z,29.4
2019-01-16T06:28:10.296Z,29.2
2019-01-16T06:30:05.968Z,29.2
2019-01-16T06:32:05.681Z,29.4
2019-01-16T06:34:08.452Z,29.4
2019-01-16T06:36:08.411Z,29.4
2019-01-16T06:38:05.086Z,29.4
2019-01-16T06:40:05.803Z,29.4
2019-01-16T06:42:08.016Z,29.4
2019-01-16T06:44:10.355Z,29.4
2019-01-16T06:46:06.640Z,29.4
2019-01-16T06:48:07.778Z,29.2
2019-01-16T06:50:05.476Z,29.2
2019-01-16T06:52:05.204Z,28.3
2019-01-16T06:54:05.876Z,28.6
2019-01-16T06:56:05.094Z,28.7
2019-01-16T06:58:05.752Z,28.6
2019-01-16T07:00:05.501Z,28.6
2019-01-16T07:02:05.222Z,28.5
2019-01-16T07:04:05.972Z,28.5
2019-01-16T07:06:15.809Z,28.5
2019-01-16T07:08:05.497Z,28.5
2019-01-16T07:10:05.186Z,28.5
2019-01-16T07:12:08.363Z,28.7
2019-01-16T07:14:10.125Z,28.7
2019-01-16T07:16:05.814Z,28.7
2019-01-16T07:18:05.657Z,28.8
2019-01-16T07:20:10.353Z,28.7
2019-01-16T07:22:05.030Z,28.7
2019-01-16T07:24:08.252Z,28.7
2019-01-16T07:26:08.463Z,28.7
2019-01-16T07:28:05.129Z,28.7
2019-01-16T07:30:08.489Z,28.8
2019-01-16T07:32:08.218Z,28.8
2019-01-16T07:34:05.874Z,28.7
2019-01-16T07:36:05.075Z,28.9
2019-01-16T07:38:05.748Z,28.6
2019-01-16T07:40:05.937Z,28.7
2019-01-16T07:42:07.707Z,28.6
2019-01-16T07:44:05.492Z,28.6
2019-01-16T07:46:07.712Z,28.6
2019-01-16T07:48:05.426Z,28.6
2019-01-16T07:50:05.084Z,28.5
2019-01-16T07:52:08.283Z,28.4
2019-01-16T07:54:05.950Z,28.4
2019-01-16T07:56:05.688Z,28.4
2019-01-16T07:58:12.945Z,30.4
2019-01-16T08:00:05.166Z,30.3
2019-01-16T08:02:05.874Z,31.2
2019-01-16T08:04:07.570Z,31.6
2019-01-16T08:06:05.324Z,30.5
2019-01-16T08:08:05.545Z,30.8
2019-01-16T08:10:07.738Z,30.1
2019-01-16T08:12:10.530Z,30
2019-01-16T08:14:05.205Z,30
2019-01-16T08:16:05.894Z,30
2019-01-16T08:18:08.331Z,30.2
2019-01-16T08:20:12.623Z,30.1
2019-01-16T08:22:05.823Z,30.1
2019-01-16T08:24:10.649Z,30.3
2019-01-16T08:26:07.878Z,31
2019-01-16T08:28:08.073Z,31.5
2019-01-16T08:30:05.765Z,31.2
2019-01-16T08:32:08.078Z,31.8
2019-01-16T08:34:08.330Z,31.6
2019-01-16T08:36:06.030Z,31.6
2019-01-16T08:38:05.445Z,32.1
2019-01-16T08:40:05.064Z,32.3
2019-01-16T08:42:05.854Z,32.4
2019-01-16T08:44:05.559Z,32.2
2019-01-16T08:46:05.717Z,32.2
2019-01-16T08:48:08.075Z,32.1
2019-01-16T08:50:05.871Z,32
2019-01-16T08:52:05.537Z,32
2019-01-16T08:54:05.271Z,31.6
2019-01-16T08:56:05.002Z,31.6
2019-01-16T08:58:05.738Z,31.6
2019-01-16T09:00:05.388Z,31.6
2019-01-16T09:02:05.076Z,31.2
2019-01-16T09:04:04.994Z,31.5
2019-01-16T09:06:05.679Z,31.5
2019-01-16T09:08:08.391Z,31.3
2019-01-16T09:10:05.593Z,31.3
2019-01-16T09:12:05.295Z,31.9
2019-01-16T09:14:08.512Z,31.9
2019-01-16T09:16:07.741Z,31.4
2019-01-16T09:18:05.143Z,31.3
2019-01-16T09:20:05.921Z,31.4
2019-01-16T09:22:05.192Z,31.5
2019-01-16T09:24:09.386Z,31.5
2019-01-16T09:26:10.215Z,31.3
2019-01-16T09:28:05.004Z,31.5
2019-01-16T09:30:05.250Z,31.4
2019-01-16T09:32:06.022Z,31.3
2019-01-16T09:34:05.728Z,31.5
2019-01-16T09:36:05.646Z,31.5
2019-01-16T09:38:05.331Z,31.7
2019-01-16T09:40:04.972Z,31.5
2019-01-16T09:42:10.064Z,31.9
2019-01-16T09:44:05.276Z,31.7
2019-01-16T09:46:05.975Z,31.5
2019-01-16T09:48:05.660Z,31.4
2019-01-16T09:50:05.366Z,31.4
2019-01-16T09:52:05.601Z,31.4
2019-01-16T09:54:05.263Z,31.4
2019-01-16T09:56:05.930Z,31.5
2019-01-16T09:58:05.628Z,31.3
2019-01-16T10:00:05.290Z,31.5
2019-01-16T10:02:05.264Z,31.5
2019-01-16T10:04:08.024Z,31.5
2019-01-16T10:06:05.858Z,31.5
2019-01-16T10:08:05.135Z,31.5
2019-01-16T10:10:08.363Z,31.7
2019-01-16T10:12:05.082Z,31.6
2019-01-16T10:14:05.759Z,31.8
2019-01-16T10:16:13.775Z,31.6
2019-01-16T10:18:05.672Z,31.6
2019-01-16T10:20:07.891Z,31.3
2019-01-16T10:22:05.122Z,31.4
2019-01-16T10:24:05.761Z,31.8
2019-01-16T10:26:05.963Z,31.8
2019-01-16T10:28:05.632Z,31.8
2019-01-16T10:30:05.295Z,31.7
2019-01-16T10:32:06.040Z,31.5
2019-01-16T10:34:05.241Z,31.8
2019-01-16T10:36:05.924Z,32
2019-01-16T10:38:05.136Z,32
2019-01-16T10:40:06.020Z,32
2019-01-16T10:42:08.361Z,32
2019-01-16T10:44:05.050Z,31.8
2019-01-16T10:46:08.226Z,31.9
2019-01-16T10:48:08.501Z,32
2019-01-16T10:50:05.714Z,31.7
2019-01-16T10:52:05.929Z,31.8
2019-01-16T10:54:05.569Z,32
2019-01-16T10:56:05.341Z,31.6
2019-01-16T10:58:07.502Z,31.8
2019-01-16T11:00:05.764Z,31.7
2019-01-16T11:02:05.361Z,31.6
2019-01-16T11:04:05.035Z,31.9
2019-01-16T11:06:06.691Z,32
2019-01-16T11:08:07.983Z,31.6
2019-01-16T11:10:05.697Z,31.8
2019-01-16T11:12:07.955Z,32.1
2019-01-16T11:14:05.659Z,31.9
2019-01-16T11:16:07.921Z,31.9
2019-01-16T11:18:05.915Z,31.8
2019-01-16T11:20:10.185Z,32.2
2019-01-16T11:22:08.467Z,32.3
2019-01-16T11:24:05.250Z,32.3
2019-01-16T11:26:06.119Z,31.9
2019-01-16T11:28:05.826Z,32
2019-01-16T11:30:05.517Z,31.8
2019-01-16T11:32:07.823Z,32.3
2019-01-16T11:34:05.522Z,32.3
2019-01-16T11:36:10.273Z,32
2019-01-16T11:38:05.983Z,32
2019-01-16T11:40:05.722Z,32.5
2019-01-16T11:42:05.390Z,32.5
2019-01-16T11:44:05.112Z,32.6
2019-01-16T11:46:05.782Z,32.6
2019-01-16T11:48:05.466Z,33.8
2019-01-16T11:50:07.729Z,36.9
2019-01-16T11:52:05.545Z,37
2019-01-16T11:54:05.278Z,38.5
2019-01-16T11:56:05.948Z,40
2019-01-16T11:58:08.136Z,35
2019-01-16T12:00:05.965Z,34.7
2019-01-16T12:02:10.403Z,32.5
2019-01-16T12:04:05.622Z,32.3
2019-01-16T12:06:07.871Z,31.7
2019-01-16T12:08:05.597Z,31.8
2019-01-16T12:10:05.294Z,32
2019-01-16T12:12:08.548Z,32.5
2019-01-16T12:14:05.218Z,32.5
2019-01-16T12:16:05.892Z,32.3
2019-01-16T12:18:05.767Z,32.3
2019-01-16T12:20:07.930Z,32.2
2019-01-16T12:22:08.120Z,32.1
2019-01-16T12:24:05.772Z,32.1
2019-01-16T12:26:08.828Z,32.1
2019-01-16T12:28:05.069Z,32.1
2019-01-16T12:30:08.280Z,31.9
2019-01-16T12:32:05.562Z,31.9
2019-01-16T12:34:05.232Z,31.8
2019-01-16T12:36:13.494Z,31.8
2019-01-16T12:38:05.253Z,31.7
2019-01-16T12:40:06.999Z,31.6
2019-01-16T12:42:08.258Z,31.3
2019-01-16T12:44:05.462Z,31.2
2019-01-16T12:46:05.131Z,31.2
2019-01-16T12:48:05.870Z,31.1
2019-01-16T12:50:05.089Z,31.1
2019-01-16T12:52:05.809Z,31.1
2019-01-16T12:54:05.470Z,31
2019-01-16T12:56:05.191Z,30.7
2019-01-16T12:58:13.191Z,30.6
2019-01-16T13:00:07.774Z,30.6
2019-01-16T13:02:05.472Z,30.6
2019-01-16T13:04:05.303Z,30.6
2019-01-16T13:06:05.997Z,30.4
2019-01-16T13:08:05.685Z,30.6
2019-01-16T13:10:05.758Z,30.5
2019-01-16T13:12:07.932Z,30.5
2019-01-16T13:14:05.578Z,30.3
2019-01-16T13:16:05.809Z,30.2
2019-01-16T13:18:08.225Z,30.2
2019-01-16T13:20:10.522Z,30.1
2019-01-16T13:22:05.230Z,30.1
2019-01-16T13:24:05.943Z,30.1
2019-01-16T13:26:05.660Z,30.1
2019-01-16T13:28:05.382Z,30.1
2019-01-16T13:30:05.059Z,30
2019-01-16T13:32:05.324Z,30
2019-01-16T13:34:05.003Z,30
2019-01-16T13:36:08.244Z,30
2019-01-16T13:38:08.513Z,30
2019-01-16T13:40:05.218Z,29.9
2019-01-16T13:42:08.495Z,30
2019-01-16T13:44:05.714Z,30
2019-01-16T13:46:05.046Z,29.9
2019-01-16T13:48:05.760Z,29.9
2019-01-16T13:50:05.465Z,29.8
2019-01-16T13:52:05.141Z,29.9
2019-01-16T13:54:05.824Z,29.8
2019-01-16T13:56:05.525Z,29.8
2019-01-16T13:58:15.347Z,29.7
2019-01-16T14:00:07.564Z,29.7
2019-01-16T14:02:05.254Z,29.6
2019-01-16T14:04:06.203Z,29.6
2019-01-16T14:06:05.969Z,29.6
2019-01-16T14:08:05.717Z,29.7
2019-01-16T14:10:05.527Z,29.7
2019-01-16T14:12:05.741Z,29.7
2019-01-16T14:14:05.418Z,29.5
2019-01-16T14:16:07.682Z,29.6
2019-01-16T14:18:05.801Z,29.6
2019-01-16T14:20:08.041Z,29.7
2019-01-16T14:22:05.677Z,29.7
2019-01-16T14:24:05.314Z,29.6
2019-01-16T14:26:05.950Z,29.6
2019-01-16T14:28:05.600Z,29.6
2019-01-16T14:30:08.409Z,29.6
2019-01-16T14:32:05.075Z,29.6
2019-01-16T14:34:08.315Z,29.6
2019-01-16T14:36:06.008Z,29.6
2019-01-16T14:38:05.654Z,29.6
2019-01-16T14:40:05.580Z,29.6
2019-01-16T14:42:05.264Z,29.6
2019-01-16T14:44:06.019Z,29.5
2019-01-16T14:46:05.771Z,29.7
2019-01-16T14:48:05.506Z,29.5
2019-01-16T14:50:15.274Z,29.4
2019-01-16T14:52:05.955Z,29.4
2019-01-16T14:54:08.410Z,29.5
2019-01-16T14:56:07.672Z,29.5
2019-01-16T14:58:05.345Z,29.5
2019-01-16T15:00:05.028Z,29.4
2019-01-16T15:02:05.670Z,29.5
2019-01-16T15:04:05.354Z,29.4
2019-01-16T15:06:05.077Z,29.3
2019-01-16T15:08:12.882Z,29.3
2019-01-16T15:10:10.614Z,29.4
2019-01-16T15:12:05.310Z,29.4
2019-01-16T15:14:05.217Z,29.4
2019-01-16T15:16:07.976Z,29.4
2019-01-16T15:18:07.898Z,29.4
2019-01-16T15:20:08.183Z,29.6
2019-01-16T15:22:08.440Z,29.6
2019-01-16T15:24:05.175Z,29.6
2019-01-16T15:26:05.087Z,29.6
2019-01-16T15:28:05.314Z,29.6
2019-01-16T15:30:07.633Z,29.6
2019-01-16T15:32:05.528Z,29.5
2019-01-16T15:34:05.338Z,29.6
2019-01-16T15:36:05.074Z,29.8
2019-01-16T15:38:05.413Z,29.7
2019-01-16T15:40:05.184Z,29.7
2019-01-16T15:42:05.640Z,29.7
2019-01-16T15:44:05.659Z,29.8
2019-01-16T15:46:08.444Z,29.7
2019-01-16T15:48:05.247Z,29.8
2019-01-16T15:50:13.501Z,29.8
2019-01-16T15:52:05.258Z,29.8
2019-01-16T15:54:09.492Z,29.8
2019-01-16T15:56:05.221Z,29.8
2019-01-16T15:58:08.442Z,29.8
2019-01-16T16:00:05.089Z,29.8
2019-01-16T16:02:10.599Z,29.8
2019-01-16T16:04:05.344Z,29.8
2019-01-16T16:06:05.053Z,29.8
2019-01-16T16:08:05.758Z,29.8
2019-01-16T16:10:10.504Z,29.8
2019-01-16T16:12:10.315Z,29.8
2019-01-16T16:14:05.977Z,29.8
2019-01-16T16:16:05.651Z,29.9
2019-01-16T16:18:05.572Z,29.9
2019-01-16T16:20:05.251Z,29.9
2019-01-16T16:22:08.482Z,29.9
2019-01-16T16:24:05.177Z,29.9
2019-01-16T16:26:07.935Z,30
2019-01-16T16:28:08.587Z,30
2019-01-16T16:30:07.846Z,29.8
2019-01-16T16:32:08.309Z,29.9
2019-01-16T16:34:05.981Z,29.9
2019-01-16T16:36:08.208Z,30
2019-01-16T16:38:08.985Z,29.8
2019-01-16T16:40:05.689Z,29.7
2019-01-16T16:42:07.925Z,29.6
2019-01-16T16:44:05.164Z,29.6
2019-01-16T16:46:05.940Z,29.6
2019-01-16T16:48:05.664Z,29.6
2019-01-16T16:50:05.371Z,29.7
2019-01-16T16:52:05.235Z,29.7
2019-01-16T16:54:05.948Z,29.6
2019-01-16T16:56:05.130Z,29.6
2019-01-16T16:58:05.826Z,29.6
2019-01-16T17:00:05.545Z,29.6
2019-01-16T17:02:05.421Z,29.4
2019-01-16T17:04:05.088Z,29.4
2019-01-16T17:06:05.778Z,29.4
2019-01-16T17:08:05.088Z,29.5
2019-01-16T17:10:07.862Z,29.5
2019-01-16T17:12:08.149Z,29.3
2019-01-16T17:14:10.962Z,29.3
2019-01-16T17:16:05.664Z,29.3
2019-01-16T17:18:05.597Z,29.3
2019-01-16T17:20:05.291Z,29.3
2019-01-16T17:22:08.483Z,29.3
2019-01-16T17:24:05.197Z,29.3
2019-01-16T17:26:05.909Z,29.3
2019-01-16T17:28:05.615Z,29.3
2019-01-16T17:30:05.311Z,29.3
2019-01-16T17:32:06.003Z,29.4
2019-01-16T17:34:06.006Z,29.1
2019-01-16T17:36:05.713Z,29.2
2019-01-16T17:38:05.393Z,29.2
2019-01-16T17:40:05.759Z,29.2
2019-01-16T17:42:05.487Z,29.2
2019-01-16T17:44:05.723Z,29.2
2019-01-16T17:46:05.504Z,29.2
2019-01-16T17:48:07.722Z,29.2
2019-01-16T17:50:08.442Z,29.2
2019-01-16T17:52:05.151Z,29.2
2019-01-16T17:54:08.660Z,29.2
2019-01-16T17:56:05.612Z,29.1
2019-01-16T17:58:07.863Z,29.1
2019-01-16T18:00:05.105Z,29.1
2019-01-16T18:02:05.807Z,29.1
2019-01-16T18:04:05.513Z,29.1
2019-01-16T18:06:10.355Z,29
2019-01-16T18:08:12.728Z,29
2019-01-16T18:10:05.459Z,29.2
2019-01-16T18:12:05.426Z,28.9
2019-01-16T18:14:08.077Z,28.9
2019-01-16T18:16:05.752Z,28.9
2019-01-16T18:18:05.390Z,28.9
2019-01-16T18:20:07.603Z,28.9
2019-01-16T18:22:05.281Z,28.8
2019-01-16T18:24:08.449Z,28.8
2019-01-16T18:26:05.638Z,28.8
2019-01-16T18:28:05.363Z,28.9
2019-01-16T18:30:05.076Z,28.9
2019-01-16T18:32:05.745Z,28.9
2019-01-16T18:34:05.447Z,29
2019-01-16T18:36:05.512Z,29
2019-01-16T18:38:07.741Z,29
2019-01-16T18:40:05.545Z,29
2019-01-16T18:42:05.821Z,29
2019-01-16T18:44:05.505Z,28.9
2019-01-16T18:46:05.304Z,29.1
2019-01-16T18:48:05.753Z,28.9
2019-01-16T18:50:05.436Z,29
2019-01-16T18:52:05.657Z,29.1
2019-01-16T18:54:05.879Z,29.2
2019-01-16T18:56:05.711Z,29.4
2019-01-16T18:58:05.482Z,29.2
2019-01-16T19:00:05.795Z,29.3
2019-01-16T19:02:07.994Z,28.9
2019-01-16T19:04:05.766Z,28.9
2019-01-16T19:06:08.023Z,28.7
2019-01-16T19:08:08.212Z,28.7
2019-01-16T19:10:05.929Z,28.8
2019-01-16T19:12:05.631Z,28.8
2019-01-16T19:14:05.298Z,28.9
2019-01-16T19:16:05.998Z,29.1
2019-01-16T19:18:05.888Z,28.9
2019-01-16T19:20:05.677Z,29
2019-01-16T19:22:07.985Z,29.1
2019-01-16T19:24:05.267Z,29.1
2019-01-16T19:26:05.958Z,29.3
2019-01-16T19:28:08.203Z,29.5
2019-01-16T19:30:05.130Z,29.5
2019-01-16T19:32:08.353Z,29.5
2019-01-16T19:34:05.552Z,29.5
2019-01-16T19:36:05.251Z,29.6
2019-01-16T19:38:05.949Z,29.6
2019-01-16T19:40:05.643Z,29.6
2019-01-16T19:42:05.582Z,29.6
2019-01-16T19:44:05.536Z,29.6
2019-01-16T19:46:05.269Z,29.6
2019-01-16T19:48:05.602Z,29.6
2019-01-16T19:50:05.331Z,29.5
2019-01-16T19:52:05.059Z,29.5
2019-01-16T19:54:05.760Z,29.4
2019-01-16T19:56:06.066Z,29.4
2019-01-16T19:58:11.455Z,29.6
2019-01-16T20:00:07.820Z,29.5
2019-01-16T20:02:05.538Z,29.4
2019-01-16T20:04:05.301Z,29.5
2019-01-16T20:06:05.069Z,29.6
2019-01-16T20:08:08.282Z,29.5
2019-01-16T20:10:10.649Z,29.3
2019-01-16T20:12:05.362Z,29.3
2019-01-16T20:14:05.013Z,29.3
2019-01-16T20:16:05.207Z,29.5
2019-01-16T20:18:05.762Z,29.5
2019-01-16T20:20:05.675Z,29.5
2019-01-16T20:22:05.377Z,29.4
2019-01-16T20:24:05.057Z,29.5
2019-01-16T20:26:05.761Z,29.4
2019-01-16T20:28:06.032Z,29.4
2019-01-16T20:30:05.739Z,29.4
2019-01-16T20:32:05.537Z,29.4
2019-01-16T20:34:07.802Z,29.4
2019-01-16T20:36:08.012Z,29.4
2019-01-16T20:38:08.272Z,29.4
2019-01-16T20:40:07.986Z,29.4
2019-01-16T20:42:05.690Z,29.4
2019-01-16T20:44:05.964Z,29.4
2019-01-16T20:46:05.653Z,29.2
2019-01-16T20:48:05.360Z,29.2
2019-01-16T20:50:05.102Z,29.1
2019-01-16T20:52:05.769Z,29.1
2019-01-16T20:54:10.512Z,29.1
2019-01-16T20:56:05.262Z,29.1
2019-01-16T20:58:06.001Z,29.1
2019-01-16T21:00:05.694Z,29.2
2019-01-16T21:02:05.367Z,29.2
2019-01-16T21:04:05.584Z,29.1
2019-01-16T21:06:05.800Z,29.2
2019-01-16T21:08:05.486Z,29.2
2019-01-16T21:10:05.253Z,29.2
2019-01-16T21:12:08.108Z,29.1
2019-01-16T21:14:05.863Z,29.1
2019-01-16T21:16:05.798Z,29.4
2019-01-16T21:18:05.978Z,29.5
2019-01-16T21:20:05.654Z,29.2
2019-01-16T21:22:05.350Z,29.1
2019-01-16T21:24:05.056Z,29.2
2019-01-16T21:26:05.774Z,29.2
2019-01-16T21:28:05.199Z,29.2
2019-01-16T21:30:05.570Z,29.1
2019-01-16T21:32:05.845Z,29.1
2019-01-16T21:34:10.523Z,29
2019-01-16T21:36:05.300Z,29
2019-01-16T21:38:05.416Z,29
2019-01-16T21:40:05.125Z,29.2
2019-01-16T21:42:05.801Z,29.2
2019-01-16T21:44:05.864Z,29.1
2019-01-16T21:46:08.130Z,29.1
2019-01-16T21:48:05.813Z,29.1
2019-01-16T21:50:10.605Z,29.1
2019-01-16T21:52:05.370Z,28.9
2019-01-16T21:54:07.594Z,28.9
2019-01-16T21:56:05.255Z,28.9
2019-01-16T21:58:05.983Z,28.9
2019-01-16T22:00:05.723Z,28.9
2019-01-16T22:02:05.733Z,29
2019-01-16T22:04:06.471Z,28.9
2019-01-16T22:06:07.681Z,28.8
2019-01-16T22:08:05.942Z,28.8
2019-01-16T22:10:05.609Z,28.8
2019-01-16T22:12:05.315Z,28.9
2019-01-16T22:14:05.064Z,28.9
2019-01-16T22:16:05.777Z,28.8
2019-01-16T22:18:05.651Z,28.8
2019-01-16T22:20:05.350Z,29
2019-01-16T22:22:05.009Z,28.9
2019-01-16T22:24:05.718Z,28.8
2019-01-16T22:26:05.617Z,28.8
2019-01-16T22:28:05.357Z,28.9
2019-01-16T22:30:08.096Z,28.9
2019-01-16T22:32:05.277Z,28.9
2019-01-16T22:34:05.179Z,28.9
2019-01-16T22:36:05.135Z,29
2019-01-16T22:38:06.117Z,29
2019-01-16T22:40:06.033Z,29
2019-01-16T22:42:05.744Z,29
2019-01-16T22:44:06.103Z,29
2019-01-16T22:46:05.864Z,29
2019-01-16T22:48:05.814Z,29.2
2019-01-16T22:50:05.077Z,29.2
2019-01-16T22:52:05.839Z,29.1
2019-01-16T22:54:05.541Z,29
2019-01-16T22:56:06.233Z,28.9
2019-01-16T22:58:08.462Z,28.9
2019-01-16T23:00:05.771Z,28.9
2019-01-16T23:02:05.469Z,28.9
2019-01-16T23:04:05.284Z,28.9
2019-01-16T23:06:06.018Z,28.9
2019-01-16T23:08:05.930Z,28.9
2019-01-16T23:10:05.591Z,28.8
2019-01-16T23:15:24.953Z,28.7
2019-01-16T23:16:05.800Z,28.8
2019-01-16T23:18:16.939Z,28.9
2019-01-16T23:20:18.765Z,28.7
2019-01-16T23:22:05.211Z,28.7
2019-01-16T23:24:06.014Z,28.7
2019-01-16T23:26:06.002Z,28.8
2019-01-16T23:28:05.684Z,28.6
2019-01-16T23:30:07.874Z,28.6
2019-01-16T23:32:08.349Z,28.6
2019-01-16T23:34:05.002Z,28.6
2019-01-16T23:36:05.203Z,28.6
2019-01-16T23:38:05.047Z,28.6
2019-01-16T23:40:05.725Z,28.6
2019-01-16T23:42:05.435Z,28.6
2019-01-16T23:44:05.161Z,28.6
2019-01-16T23:46:05.850Z,28.5
2019-01-16T23:48:05.607Z,28.5
2019-01-16T23:50:05.279Z,28.5
2019-01-16T23:52:05.964Z,28.6
2019-01-16T23:54:05.641Z,28.5
2019-01-16T23:56:10.349Z,28.4
2019-01-16T23:58:05.046Z,28.4
